aviador You're here:

KFLD Decoded Metar

FOND DU LAC in WI, USA
Report Time2018-02-19 11:53:00
UTC Time2018-02-19 11:58:26
Flight Rules vfr VFR
Wind180° at 07 kt
W.Decomp.*RWY 18: 7.0 kt HW 0.5 kt RCW
RWY 27: 0.5 kt HW 7 kt LCW
W.Rank180° ranks 5
Current wind is below 180° avg. (7.7)
Visibility9999 m
Phenomena:N/A
Clouds:Overcast 065 Hf
Expected CloudBase > 2,000 ft AGL from Temp-Dew spread
Ceiling6,500 ft
Temp04°C (ISA -9)
Dew Point-1°C (70% RH)
AAT-0.6°C
QNH1010 hPa
Density Alt-171 ft
Elevation787 ft
Report Wrong Elevation
Raw Report
METAR KFLD 191153Z AUTO 18007KT 10SM OVC065 04/M01 A2982 RMK AO2
SLP104 T00391006 10039 20017 53005 TSNO=

Extra information for KFLD:More info

Metar Taf Metar & Taf Last 4 Metars F.Rules Stats Wind Profile Meteogram Temp Stats Airport Information Weather charts Add Link Nearby VenuesMetar ALERT Operation Metar Decoded Social comments

AIRNAV info for KFLD